Latest News: CDIP is now hiring. Job description.

WILMINGTON HARBOR, NC - 200

GPS Positions

GPS Time
Latitude
Degrees
Longitude
Degrees
Gap
 
Distance
NM
Speed
Knots
Direction
Degrees
May 19, 08:41 33.72080° -78.01590° 2 min 0.03 0.03
270°
May 19, 08:39 33.72080° -78.01588° 8 min 0.03 0.01
140°
May 19, 08:31 33.72082° -78.01590° 2 min 0.03 0.00
May 19, 08:29 33.72082° -78.01590° 8 min 0.03 0.01
180°
May 19, 08:21 33.72083° -78.01590° 2 min 0.03 0.05
225°
May 19, 08:19 33.72085° -78.01588° 8 min 0.03 0.00
May 19, 08:11 33.72085° -78.01588° 2 min 0.03 0.02
180°
May 19, 08:09 33.72086° -78.01588° 8 min 0.03 0.01
May 19, 08:01 33.72085° -78.01588° 2 min 0.03 0.03
May 19, 07:59 33.72083° -78.01588° 8 min 0.03 0.00
May 19, 07:51 33.72083° -78.01588° 2 min 0.03 0.03
180°
May 19, 07:49 33.72085° -78.01588° 8 min 0.03 0.00
May 19, 07:41 33.72085° -78.01588° 2 min 0.03 0.04
121°
May 19, 07:39 33.72086° -78.01590° 8 min 0.03 0.00
May 19, 07:31 33.72086° -78.01590° 2 min 0.03 0.00
May 19, 07:29 33.72086° -78.01590° 8 min 0.03 0.00
May 19, 07:21 33.72086° -78.01590° 2 min 0.03 0.05
140°
May 19, 07:19 33.72089° -78.01592° 8 min 0.02 0.00
May 19, 07:11 33.72089° -78.01592° 2 min 0.02 0.00
May 19, 07:09 33.72089° -78.01592° 8 min 0.02 0.01
239°
May 19, 07:01 33.72090° -78.01590° 2 min 0.03 0.04
59°
May 19, 06:59 33.72089° -78.01592° 8 min 0.02 0.02
180°
May 19, 06:51 33.72094° -78.01592° 2 min 0.02 0.00
May 19, 06:49 33.72094° -78.01592° 8 min 0.02 0.02
336°
May 19, 06:41 33.72090° -78.01590° 2 min 0.03 0.02
May 19, 06:39 33.72089° -78.01590° 8 min 0.03 0.02
148°
May 19, 06:31 33.72092° -78.01592° 2 min 0.02 0.05
315°
May 19, 06:29 33.72090° -78.01590° 8 min 0.03 0.02
29°
May 19, 06:21 33.72086° -78.01592° 2 min 0.02 0.02
May 19, 06:19 33.72085° -78.01592° 8 min 0.02 0.01
180°
May 19, 06:11 33.72086° -78.01592° 2 min 0.02 0.00
May 19, 06:09 33.72086° -78.01592° 8 min 0.02 0.02
180°
May 19, 06:01 33.72090° -78.01592° 2 min 0.02 0.00
May 19, 05:59 33.72090° -78.01592° 8 min 0.02 0.02
May 19, 05:51 33.72085° -78.01592° 2 min 0.02 0.00
May 19, 05:49 33.72085° -78.01592° 8 min 0.02 0.02
180°
May 19, 05:41 33.72089° -78.01592° 1 min 0.02 0.00
May 19, 05:39 33.72089° -78.01592° 8 min 0.02 0.01
May 19, 05:31 33.72086° -78.01592° 2 min 0.02 0.02
90°
May 19, 05:29 33.72086° -78.01594° 8 min 0.02 0.01
May 19, 05:21 33.72083° -78.01594° 2 min 0.02 0.00
May 19, 05:19 33.72083° -78.01594° 8 min 0.02 0.01
May 19, 05:11 33.72082° -78.01594° 2 min 0.02 0.03
90°
May 19, 05:09 33.72082° -78.01596° 8 min 0.02 0.02
May 19, 05:01 33.72077° -78.01596° 2 min 0.02 0.02
May 19, 04:59 33.72076° -78.01596° 8 min 0.02 0.01
180°
May 19, 04:51 33.72077° -78.01596° 2 min 0.02 0.00
May 19, 04:49 33.72077° -78.01596° 8 min 0.02 0.00
May 19, 04:41 33.72077° -78.01596° 2 min 0.02 0.00
May 19, 04:39 33.72077° -78.01596° 8 min 0.02 0.00
May 19, 04:31 33.72077° -78.01596° 2 min 0.02 0.00
May 19, 04:29 33.72077° -78.01596° 8 min 0.02 0.02
May 19, 04:21 33.72071° -78.01596° 2 min 0.02 0.03
90°
May 19, 04:19 33.72071° -78.01598° 8 min 0.02 0.00
May 19, 04:11 33.72071° -78.01598° 2 min 0.02 0.02
May 19, 04:09 33.72070° -78.01598° 8 min 0.02 0.00
May 19, 04:01 33.72070° -78.01598° 2 min 0.02 0.00
May 19, 03:59 33.72070° -78.01598° 8 min 0.02 0.01
May 19, 03:51 33.72068° -78.01598° 2 min 0.02 0.03
270°
May 19, 03:49 33.72068° -78.01596° 8 min 0.03 0.01
90°
May 19, 03:41 33.72068° -78.01598° 2 min 0.02 0.00
May 19, 03:39 33.72068° -78.01598° 8 min 0.02 0.00
May 19, 03:31 33.72068° -78.01598° 2 min 0.02 0.00
May 19, 03:29 33.72068° -78.01598° 8 min 0.02 0.00
May 19, 03:21 33.72067° -78.01598° 2 min 0.03 0.04
May 19, 03:19 33.72065° -78.01598° 8 min 0.03 0.00
May 19, 03:11 33.72065° -78.01598° 2 min 0.03 0.04
59°
May 19, 03:09 33.72064° -78.01601° 8 min 0.03 0.01
45°
May 19, 03:01 33.72062° -78.01603° 2 min 0.03 0.00
May 19, 02:59 33.72062° -78.01603° 8 min 0.03 0.01
225°
May 19, 02:51 33.72064° -78.01601° 2 min 0.03 0.00
May 19, 02:49 33.72064° -78.01601° 8 min 0.03 0.00
May 19, 02:41 33.72064° -78.01601° 2 min 0.03 0.05
45°
May 19, 02:39 33.72062° -78.01603° 8 min 0.03 0.01
225°
May 19, 02:31 33.72064° -78.01601° 2 min 0.03 0.00
May 19, 02:29 33.72064° -78.01601° 8 min 0.03 0.00
May 19, 02:21 33.72064° -78.01601° 2 min 0.03 0.00
May 19, 02:19 33.72064° -78.01601° 8 min 0.03 0.01
90°
May 19, 02:11 33.72064° -78.01603° 1 min 0.02 0.05
315°
May 19, 02:09 33.72062° -78.01601° 8 min 0.03 0.01
May 19, 02:01 33.72061° -78.01601° 1 min 0.03 0.03
90°
May 19, 01:59 33.72061° -78.01603° 8 min 0.03 0.00
May 19, 01:51 33.72061° -78.01603° 2 min 0.03 0.03
270°
May 19, 01:49 33.72061° -78.01601° 8 min 0.03 0.01
121°
May 19, 01:41 33.72062° -78.01603° 2 min 0.03 0.00
May 19, 01:39 33.72062° -78.01603° 8 min 0.03 0.00
May 19, 01:31 33.72062° -78.01603° 2 min 0.03 0.00
May 19, 01:29 33.72062° -78.01603° 8 min 0.03 0.01
May 19, 01:21 33.72061° -78.01603° 2 min 0.03 0.00
May 19, 01:19 33.72061° -78.01603° 8 min 0.03 0.02
253°
May 19, 01:11 33.72062° -78.01598° 2 min 0.03 0.00
May 19, 01:09 33.72062° -78.01598° 8 min 0.03 0.00
May 19, 01:01 33.72062° -78.01598° 2 min 0.03 0.04
59°
May 19, 00:59 33.72061° -78.01601° 8 min 0.03 0.02
231°
May 19, 00:51 33.72064° -78.01596° 2 min 0.03 0.00
May 19, 00:49 33.72064° -78.01596° 8 min 0.03 0.02
180°
May 19, 00:41 33.72067° -78.01596° 2 min 0.03 0.01
180°
May 19, 00:39 33.72068° -78.01596° 8 min 0.03 0.00
May 19, 00:31 33.72068° -78.01596° 2 min 0.03 0.00
May 19, 00:29 33.72068° -78.01596° 8 min 0.03 0.00
May 19, 00:21 33.72068° -78.01596° 2 min 0.03 0.00
May 19, 00:19 33.72068° -78.01596° 8 min 0.03 0.01
220°
May 19, 00:11 33.72070° -78.01594° 2 min 0.03 0.03
90°
May 19, 00:09 33.72070° -78.01596° 8 min 0.03 0.01
270°
May 19, 00:01 33.72070° -78.01594° 2 min 0.03 0.03
90°
May 18, 23:59 33.72070° -78.01596° 8 min 0.03 0.00
May 18, 23:51 33.72070° -78.01596° 2 min 0.03 0.03
270°
May 18, 23:49 33.72070° -78.01594° 8 min 0.03 0.01
228°
May 18, 23:41 33.72071° -78.01592° 2 min 0.03 0.05
151°
May 18, 23:39 33.72074° -78.01594° 8 min 0.03 0.01
214°
May 18, 23:31 33.72076° -78.01592° 2 min 0.03 0.03
May 18, 23:29 33.72074° -78.01592° 8 min 0.03 0.01
29°
May 18, 23:21 33.72071° -78.01594° 2 min 0.03 0.00
May 18, 23:19 33.72071° -78.01594° 8 min 0.03 0.01
59°
May 18, 23:11 33.72070° -78.01596° 2 min 0.03 0.00
May 18, 23:09 33.72070° -78.01596° 8 min 0.03 0.02
209°
May 18, 23:01 33.72074° -78.01594° 2 min 0.03 0.05
40°
May 18, 22:59 33.72071° -78.01596° 8 min 0.02 0.02
217°
May 18, 22:51 33.72076° -78.01592° 2 min 0.03 0.00
May 18, 22:49 33.72076° -78.01592° 8 min 0.03 0.01
180°
May 18, 22:41 33.72077° -78.01592° 2 min 0.03 0.00
May 18, 22:39 33.72077° -78.01592° 8 min 0.03 0.01
180°
May 18, 22:31 33.72079° -78.01592° 2 min 0.02 0.08
204°
May 18, 22:29 33.72083° -78.01590° 8 min 0.03 0.02
May 18, 22:21 33.72080° -78.01590° 2 min 0.03 0.04
180°
May 18, 22:19 33.72082° -78.01590° 8 min 0.03 0.01
239°
May 18, 22:11 33.72083° -78.01588° 2 min 0.03 0.00
May 18, 22:09 33.72083° -78.01588° 8 min 0.03 0.00
May 18, 22:01 33.72083° -78.01588° 2 min 0.03 0.00
May 18, 21:59 33.72083° -78.01588° 8 min 0.03 0.01
180°
May 18, 21:51 33.72085° -78.01588° 2 min 0.03 0.00
May 18, 21:49 33.72085° -78.01588° 8 min 0.03 0.00
May 18, 21:41 33.72085° -78.01588° 2 min 0.03 0.00
May 18, 21:39 33.72085° -78.01588° 8 min 0.03 0.01
180°
May 18, 21:31 33.72086° -78.01588° 2 min 0.03 0.04
180°
May 18, 21:29 33.72089° -78.01588° 8 min 0.03 0.01
180°
May 18, 21:21 33.72090° -78.01588° 2 min 0.03 0.00
May 18, 21:19 33.72090° -78.01588° 8 min 0.03 0.02
180°
May 18, 21:11 33.72094° -78.01588° 2 min 0.03 0.00
May 18, 21:09 33.72094° -78.01588° 8 min 0.03 0.01
180°
May 18, 21:01 33.72095° -78.01588° 2 min 0.03 0.03
180°
May 18, 20:59 33.72097° -78.01588° 8 min 0.03 0.01
180°
May 18, 20:51 33.72098° -78.01588° 2 min 0.03 0.04
180°
May 18, 20:49 33.72100° -78.01588° 8 min 0.03 0.02
148°
May 18, 20:41 33.72104° -78.01590° 2 min 0.03 0.03
270°
May 18, 20:39 33.72104° -78.01588° 8 min 0.03 0.02
107°
May 18, 20:31 33.72105° -78.01592° 2 min 0.03 0.08
180°
May 18, 20:29 33.72109° -78.01592° 8 min 0.03 0.01
90°
May 18, 20:21 33.72109° -78.01594° 2 min 0.03 0.00
May 18, 20:19 33.72109° -78.01594° 8 min 0.03 0.01
121°
May 18, 20:11 33.72110° -78.01596° 2 min 0.03 0.00
May 18, 20:09 33.72110° -78.01596° 8 min 0.03 0.01
180°
May 18, 20:01 33.72112° -78.01596° 2 min 0.03 0.04
121°
May 18, 19:59 33.72113° -78.01598° 8 min 0.03 0.02
129°
May 18, 19:51 33.72116° -78.01603° 2 min 0.02 0.02
May 18, 19:49 33.72115° -78.01603° 8 min 0.02 0.02
160°
May 18, 19:41 33.72119° -78.01604° 2 min 0.02 0.00
May 18, 19:39 33.72119° -78.01604° 8 min 0.02 0.02
90°
May 18, 19:31 33.72119° -78.01609° 2 min 0.02 0.01
180°
May 18, 19:29 33.72120° -78.01609° 8 min 0.02 0.01
90°
May 18, 19:21 33.72120° -78.01611° 1 min 0.02 0.00
May 18, 19:19 33.72120° -78.01611° 8 min 0.02 0.00
May 18, 19:11 33.72120° -78.01611° 2 min 0.02 0.00
May 18, 19:09 33.72120° -78.01611° 8 min 0.02 0.01
140°
May 18, 19:01 33.72122° -78.01614° 2 min 0.02 0.03
270°
May 18, 18:59 33.72122° -78.01611° 8 min 0.02 0.01
May 18, 18:51 33.72120° -78.01611° 2 min 0.02 0.01
May 18, 18:49 33.72119° -78.01611° 8 min 0.02 0.01
112°
May 18, 18:41 33.72120° -78.01614° 2 min 0.02 0.00
May 18, 18:39 33.72120° -78.01614° 8 min 0.02 0.01
180°
May 18, 18:31 33.72122° -78.01614° 2 min 0.02 0.02
90°
May 18, 18:29 33.72122° -78.01615° 8 min 0.02 0.01
140°
May 18, 18:21 33.72124° -78.01617° 2 min 0.02 0.00
May 18, 18:19 33.72124° -78.01617° 8 min 0.02 0.00
May 18, 18:11 33.72124° -78.01617° 2 min 0.02 0.00
May 18, 18:09 33.72124° -78.01617° 8 min 0.02 0.01
May 18, 18:01 33.72122° -78.01617° 2 min 0.02 0.04
180°
May 18, 17:59 33.72124° -78.01617° 8 min 0.02 0.00
May 18, 17:51 33.72124° -78.01617° 2 min 0.02 0.03
270°
May 18, 17:49 33.72124° -78.01615° 8 min 0.02 0.01
90°
May 18, 17:41 33.72124° -78.01617° 2 min 0.02 0.00
May 18, 17:39 33.72124° -78.01617° 8 min 0.02 0.00
May 18, 17:31 33.72124° -78.01617° 2 min 0.02 0.00
May 18, 17:29 33.72124° -78.01617° 8 min 0.02 0.01
May 18, 17:21 33.72122° -78.01617° 2 min 0.02 0.00
May 18, 17:19 33.72122° -78.01617° 8 min 0.02 0.00
May 18, 17:11 33.72122° -78.01617° 2 min 0.02 0.00
May 18, 17:09 33.72122° -78.01617° 8 min 0.02 0.01
140°
May 18, 17:01 33.72124° -78.01620° 2 min 0.02 0.04
May 18, 16:59 33.72122° -78.01620° 8 min 0.02 0.03
112°
May 18, 16:51 33.72124° -78.01627° 2 min 0.02 0.00
May 18, 16:49 33.72124° -78.01627° 8 min 0.02 0.01
320°
May 18, 16:41 33.72122° -78.01624° 2 min 0.02 0.05
320°
May 18, 16:39 33.72120° -78.01622° 8 min 0.02 0.02
270°
May 18, 16:31 33.72120° -78.01617° 2 min 0.02 0.04
292°
May 18, 16:29 33.72119° -78.01615° 8 min 0.02 0.02
340°
May 18, 16:21 33.72115° -78.01614° 2 min 0.02 0.04
239°
May 18, 16:19 33.72116° -78.01611° 8 min 0.02 0.02
126°
May 18, 16:11 33.72119° -78.01615° 2 min 0.02 0.00
May 18, 16:09 33.72119° -78.01615° 8 min 0.02 0.01
40°
May 18, 16:01 33.72116° -78.01617° 1 min 0.02 0.04
180°
May 18, 15:59 33.72119° -78.01617° 8 min 0.02 0.04
307°
May 18, 15:51 33.72113° -78.01609° 2 min 0.02 0.04
301°
May 18, 15:49 33.72112° -78.01607° 8 min 0.02 0.06
329°
May 18, 15:41 33.72100° -78.01598° 2 min 0.02 0.07
331°
May 18, 15:39 33.72097° -78.01596° 8 min 0.02 0.06
26°
May 18, 15:31 33.72085° -78.01603° 2 min 0.02 0.05
May 18, 15:29 33.72082° -78.01603° 8 min 0.02 0.05
25°
May 18, 15:21 33.72071° -78.01609° 2 min 0.02 0.00
May 18, 15:19 33.72071° -78.01609° 8 min 0.02 0.02
29°
May 18, 15:11 33.72068° -78.01611° 2 min 0.02 0.03
90°
May 18, 15:09 33.72068° -78.01614° 8 min 0.02 0.00
May 18, 15:01 33.72067° -78.01614° 2 min 0.02 0.04
May 18, 14:59 33.72065° -78.01614° 8 min 0.02 0.01
220°
May 18, 14:51 33.72067° -78.01611° 2 min 0.02 0.05
40°
May 18, 14:49 33.72065° -78.01614° 8 min 0.02 0.01
May 18, 14:41 33.72064° -78.01614° 2 min 0.02 0.03
270°
May 18, 14:39 33.72064° -78.01611° 8 min 0.02 0.01
180°
May 18, 14:31 33.72065° -78.01611° 2 min 0.02 0.00
May 18, 14:29 33.72065° -78.01611° 8 min 0.02 0.01
May 18, 14:21 33.72062° -78.01611° 2 min 0.02 0.00
May 18, 14:19 33.72062° -78.01611° 8 min 0.02 0.01
59°
May 18, 14:11 33.72061° -78.01614° 2 min 0.02 0.02
90°
May 18, 14:09 33.72061° -78.01615° 8 min 0.02 0.01
270°
May 18, 14:01 33.72061° -78.01614° 2 min 0.02 0.02
90°
May 18, 13:59 33.72061° -78.01615° 8 min 0.02 0.01
May 18, 13:51 33.72058° -78.01615° 2 min 0.02 0.04
180°
May 18, 13:49 33.72061° -78.01615° 8 min 0.02 0.01
270°
May 18, 13:41 33.72061° -78.01611° 2 min 0.02 0.02
180°
May 18, 13:39 33.72062° -78.01611° 8 min 0.02 0.00
May 18, 13:31 33.72062° -78.01611° 2 min 0.02 0.04
59°
May 18, 13:29 33.72061° -78.01614° 8 min 0.02 0.01
180°
May 18, 13:21 33.72062° -78.01614° 2 min 0.02 0.03
270°
May 18, 13:19 33.72062° -78.01611° 8 min 0.02 0.00
May 18, 13:11 33.72062° -78.01611° 2 min 0.02 0.02
May 18, 13:09 33.72061° -78.01611° 8 min 0.02 0.01
180°
May 18, 13:01 33.72062° -78.01611° 2 min 0.02 0.00
May 18, 12:59 33.72062° -78.01611° 7 min 0.02 0.01
90°
May 18, 12:51 33.72062° -78.01614° 2 min 0.02 0.03
270°
May 18, 12:49 33.72062° -78.01611° 8 min 0.02 0.02
243°
May 18, 12:41 33.72064° -78.01607° 2 min 0.02 0.03
90°
May 18, 12:39 33.72064° -78.01609° 8 min 0.02 0.01
239°
May 18, 12:31 33.72065° -78.01607° 2 min 0.02 0.00
May 18, 12:29 33.72065° -78.01607° 8 min 0.02 0.01
270°
May 18, 12:21 33.72065° -78.01604° 2 min 0.02 0.04
180°
May 18, 12:19 33.72067° -78.01604° 8 min 0.02 0.01
270°
May 18, 12:11 33.72067° -78.01603° 2 min 0.02 0.01
180°
May 18, 12:09 33.72068° -78.01603° 8 min 0.02 0.00
May 18, 12:01 33.72068° -78.01603° 2 min 0.02 0.00
May 18, 11:59 33.72068° -78.01603° 8 min 0.02 0.00
May 18, 11:51 33.72068° -78.01603° 2 min 0.02 0.00
May 18, 11:49 33.72068° -78.01603° 8 min 0.02 0.02
239°
May 18, 11:41 33.72070° -78.01598° 2 min 0.02 0.02
180°
May 18, 11:39 33.72071° -78.01598° 8 min 0.02 0.00
May 18, 11:31 33.72071° -78.01598° 2 min 0.02 0.00
May 18, 11:29 33.72071° -78.01598° 8 min 0.02 0.01
220°
May 18, 11:21 33.72074° -78.01596° 2 min 0.02 0.00
May 18, 11:19 33.72074° -78.01596° 8 min 0.02 0.01
180°
May 18, 11:11 33.72076° -78.01596° 2 min 0.02 0.03
May 18, 11:09 33.72074° -78.01596° 8 min 0.02 0.01
180°
May 18, 11:01 33.72076° -78.01596° 2 min 0.02 0.00
May 18, 10:59 33.72076° -78.01596° 8 min 0.02 0.02
209°
May 18, 10:51 33.72079° -78.01594° 2 min 0.02 0.03
90°
May 18, 10:49 33.72079° -78.01596° 8 min 0.02 0.01
May 18, 10:41 33.72077° -78.01596° 2 min 0.02 0.04
180°
May 18, 10:39 33.72079° -78.01596° 8 min 0.02 0.00
May 18, 10:31 33.72079° -78.01596° 2 min 0.02 0.00
May 18, 10:29 33.72079° -78.01596° 8 min 0.02 0.02
212°
May 18, 10:21 33.72082° -78.01594° 2 min 0.02 0.02
270°
May 18, 10:19 33.72082° -78.01592° 8 min 0.02 0.01
132°
May 18, 10:11 33.72083° -78.01594° 2 min 0.02 0.03
180°
May 18, 10:09 33.72085° -78.01594° 8 min 0.02 0.00
May 18, 10:01 33.72085° -78.01594° 2 min 0.02 0.02
180°
May 18, 09:59 33.72086° -78.01594° 8 min 0.02 0.02
200°
May 18, 09:51 33.72090° -78.01592° 2 min 0.02 0.03
180°
May 18, 09:49 33.72092° -78.01592° 8 min 0.02 0.02
180°
May 18, 09:41 33.72095° -78.01592° 2 min 0.02 0.02
90°
May 18, 09:39 33.72095° -78.01594° 8 min 0.02 0.01
214°
May 18, 09:31 33.72097° -78.01592° 2 min 0.02 0.03
132°
May 18, 09:29 33.72098° -78.01594° 8 min 0.02 0.01
270°
May 18, 09:21 33.72098° -78.01592° 1 min 0.02 0.02
90°
May 18, 09:19 33.72098° -78.01594° 8 min 0.02 0.00
May 18, 09:11 33.72098° -78.01594° 2 min 0.02 0.02
270°
May 18, 09:09 33.72098° -78.01592° 8 min 0.02 0.01
90°
May 18, 09:01 33.72098° -78.01594° 2 min 0.02 0.00
May 18, 08:59 33.72098° -78.01594° 8 min 0.02 0.04
168°
May 18, 08:51 33.72107° -78.01596° 2 min 0.02 0.05
135°
May 18, 08:49 33.72109° -78.01598° 8 min 0.02 0.03
140°
May 18, 08:41 33.72113° -78.01603° 2 min 0.02 0.03
180°
May 18, 08:39 33.72115° -78.01603° 8 min 0.02 0.02
137°
May 18, 08:31 33.72119° -78.01607° 2 min 0.02 0.00
May 18, 08:29 33.72119° -78.01607° 8 min 0.02 0.01
90°
May 18, 08:21 33.72119° -78.01609° 2 min 0.02 0.04
112°
May 18, 08:19 33.72120° -78.01611° 8 min 0.02 0.01
292°
May 18, 08:11 33.72119° -78.01609° 2 min 0.02 0.03
90°
May 18, 08:09 33.72119° -78.01611° 8 min 0.02 0.02
148°
May 18, 08:01 33.72122° -78.01614° 2 min 0.02 0.00
May 18, 07:59 33.72122° -78.01614° 8 min 0.02 0.01
151°
May 18, 07:51 33.72124° -78.01615° 2 min 0.02 0.00
May 18, 07:49 33.72124° -78.01615° 8 min 0.02 0.01
112°
May 18, 07:41 33.72125° -78.01617° 2 min 0.02 0.00
May 18, 07:39 33.72125° -78.01617° 8 min 0.02 0.02
121°
May 18, 07:31 33.72127° -78.01622° 2 min 0.02 0.05
320°
May 18, 07:29 33.72125° -78.01620° 8 min 0.02 0.03
121°
May 18, 07:21 33.72128° -78.01627° 2 min 0.02 0.00
May 18, 07:19 33.72128° -78.01627° 8 min 0.02 0.00
May 18, 07:11 33.72128° -78.01627° 2 min 0.02 0.02
90°
May 18, 07:09 33.72128° -78.01628° 8 min 0.02 0.02
73°
May 18, 07:01 33.72127° -78.01633° 2 min 0.02 0.02
180°
May 18, 06:59 33.72128° -78.01633° 8 min 0.02 0.02
73°
May 18, 06:51 33.72127° -78.01637° 2 min 0.02 0.00
May 18, 06:49 33.72127° -78.01637° 8 min 0.02 0.01
90°
May 18, 06:41 33.72127° -78.01639° 2 min 0.02 0.03
90°
May 18, 06:39 33.72127° -78.01641° 8 min 0.02 0.00
May 18, 06:31 33.72127° -78.01641° 2 min 0.02 0.00
May 18, 06:29 33.72127° -78.01641° 8 min 0.02 0.03
68°
May 18, 06:21 33.72125° -78.01648° 2 min 0.02 0.00
May 18, 06:19 33.72125° -78.01648° 8 min 0.02 0.01
90°
May 18, 06:11 33.72125° -78.01652° 2 min 0.02 0.00
May 18, 06:09 33.72125° -78.01652° 8 min 0.02 0.00
May 18, 06:01 33.72125° -78.01652° 1 min 0.02 0.00
May 18, 05:59 33.72125° -78.01652° 8 min 0.02 0.01
209°
May 18, 05:51 33.72127° -78.01650° 2 min 0.02 0.02
90°
May 18, 05:49 33.72127° -78.01652° 8 min 0.02 0.01
40°
May 18, 05:41 33.72125° -78.01654° 2 min 0.02 0.00
May 18, 05:39 33.72125° -78.01654° 8 min 0.02 0.02
32°
May 18, 05:31 33.72122° -78.01656° 2 min 0.02 0.03
90°
May 18, 05:29 33.72122° -78.01659° 8 min 0.02 0.02
46°
May 18, 05:21 33.72119° -78.01662° 2 min 0.02 0.00
May 18, 05:19 33.72119° -78.01662° 8 min 0.02 0.02
261°
May 18, 05:11 33.72120° -78.01656° 2 min 0.02 0.04
180°
May 18, 05:09 33.72122° -78.01656° 8 min 0.02 0.00
May 18, 05:01 33.72122° -78.01656° 2 min 0.02 0.00
May 18, 04:59 33.72122° -78.01656° 8 min 0.02 0.02
51°
May 18, 04:51 33.72119° -78.01661° 2 min 0.02 0.00
May 18, 04:49 33.72119° -78.01661° 8 min 0.02 0.00
180°
May 18, 04:41 33.72120° -78.01661° 2 min 0.02 0.01
May 18, 04:39 33.72119° -78.01661° 8 min 0.02 0.01
29°
May 18, 04:31 33.72116° -78.01662° 2 min 0.02 0.00
May 18, 04:29 33.72116° -78.01662° 8 min 0.02 0.01
180°
May 18, 04:21 33.72119° -78.01662° 2 min 0.02 0.00
May 18, 04:19 33.72119° -78.01662° 8 min 0.02 0.03
35°
May 18, 04:11 33.72113° -78.01667° 2 min 0.02 0.03
270°
May 18, 04:09 33.72113° -78.01665° 8 min 0.02 0.02
73°
May 18, 04:01 33.72112° -78.01669° 2 min 0.02 0.04
May 18, 03:59 33.72110° -78.01669° 8 min 0.02 0.01
May 18, 03:51 33.72109° -78.01669° 2 min 0.02 0.00
May 18, 03:49 33.72109° -78.01669° 8 min 0.02 0.01
180°
May 18, 03:41 33.72110° -78.01669° 2 min 0.02 0.03
270°
May 18, 03:39 33.72110° -78.01667° 8 min 0.02 0.01
220°
May 18, 03:31 33.72112° -78.01665° 2 min 0.02 0.00
May 18, 03:29 33.72112° -78.01665° 8 min 0.02 0.01
180°
May 18, 03:21 33.72113° -78.01665° 2 min 0.02 0.02
May 18, 03:19 33.72112° -78.01665° 8 min 0.02 0.00
May 18, 03:11 33.72112° -78.01665° 2 min 0.02 0.00
May 18, 03:09 33.72112° -78.01665° 8 min 0.02 0.01
180°
May 18, 03:01 33.72113° -78.01665° 2 min 0.02 0.03
90°
May 18, 02:59 33.72113° -78.01667° 8 min 0.02 0.05
30°
May 18, 02:51 33.72105° -78.01673° 2 min 0.02 0.12
16°
May 18, 02:49 33.72098° -78.01675° 8 min 0.02 0.02
328°
May 18, 02:41 33.72095° -78.01673° 1 min 0.02 0.00
May 18, 02:39 33.72095° -78.01673° 8 min 0.02 0.01
270°
May 18, 02:31 33.72095° -78.01672° 2 min 0.02 0.02
90°
May 18, 02:29 33.72095° -78.01673° 8 min 0.02 0.02
29°
May 18, 02:21 33.72092° -78.01675° 2 min 0.02 0.05
220°
May 18, 02:19 33.72094° -78.01673° 8 min 0.02 0.01
90°
May 18, 02:11 33.72094° -78.01675° 2 min 0.02 0.02
180°
May 18, 02:09 33.72095° -78.01675° 8 min 0.02 0.02
May 18, 02:01 33.72092° -78.01675° 2 min 0.02 0.03
May 18, 01:59 33.72090° -78.01675° 8 min 0.02 0.02
May 18, 01:51 33.72085° -78.01675° 2 min 0.02 0.05
315°
May 18, 01:49 33.72083° -78.01673° 8 min 0.02 0.02
343°
May 18, 01:41 33.72079° -78.01672° 2 min 0.02 0.01
180°
May 18, 01:39 33.72080° -78.01672° 8 min 0.02 0.03
328°
May 18, 01:31 33.72074° -78.01667° 2 min 0.02 0.03
270°
May 18, 01:29 33.72074° -78.01665° 8 min 0.02 0.04
313°
May 18, 01:21 33.72067° -78.01656° 2 min 0.02 0.05
320°
May 18, 01:19 33.72065° -78.01654° 8 min 0.02 0.05
286°
May 18, 01:11 33.72062° -78.01641° 2 min 0.02 0.02
May 18, 01:09 33.72061° -78.01641° 8 min 0.02 0.02
306°
May 18, 01:01 33.72058° -78.01637° 2 min 0.02 0.04
180°
May 18, 00:59 33.72061° -78.01637° 8 min 0.02 0.00
May 18, 00:51 33.72061° -78.01637° 2 min 0.02 0.03
270°
May 18, 00:49 33.72061° -78.01635° 8 min 0.02 0.02
103°
May 18, 00:41 33.72062° -78.01641° 2 min 0.02 0.05
225°
May 18, 00:39 33.72064° -78.01639° 8 min 0.02 0.03
35°
May 18, 00:31 33.72058° -78.01643° 2 min 0.02 0.08
121°
May 18, 00:29 33.72061° -78.01648° 8 min 0.02 0.03
164°
May 18, 00:21 33.72067° -78.01650° 2 min 0.01 0.04
248°
May 18, 00:19 33.72068° -78.01648° 8 min 0.01 0.03
278°
May 18, 00:11 33.72067° -78.01641° 2 min 0.01 0.06
270°
May 18, 00:09 33.72067° -78.01637° 8 min 0.01 0.03
270°
May 18, 00:01 33.72067° -78.01628° 2 min 0.02 0.00
May 17, 23:59 33.72067° -78.01628° 8 min 0.02 0.04
251°
May 17, 23:51 33.72070° -78.01617° 2 min 0.02 0.04
239°
May 17, 23:49 33.72071° -78.01615° 8 min 0.02 0.02
234°
May 17, 23:41 33.72074° -78.01611° 2 min 0.02 0.00
May 17, 23:39 33.72074° -78.01611° 8 min 0.02 0.02
231°
May 17, 23:31 33.72077° -78.01607° 2 min 0.02 0.00
May 17, 23:29 33.72077° -78.01607° 8 min 0.02 0.02
212°
May 17, 23:21 33.72080° -78.01604° 2 min 0.02 0.07
151°
May 17, 23:19 33.72083° -78.01607° 8 min 0.02 0.01
270°
May 17, 23:11 33.72083° -78.01603° 2 min 0.02 0.00
May 17, 23:09 33.72083° -78.01603° 8 min 0.02 0.03
200°
May 17, 23:01 33.72089° -78.01601° 1 min 0.02 0.04
121°
May 17, 22:59 33.72090° -78.01603° 8 min 0.02 0.02
180°
May 17, 22:51 33.72094° -78.01603° 2 min 0.02 0.04
May 17, 22:49 33.72092° -78.01603° 8 min 0.02 0.02
180°
May 17, 22:41 33.72095° -78.01603° 2 min 0.02 0.03
180°
May 17, 22:39 33.72097° -78.01603° 8 min 0.02 0.03
169°
May 17, 22:31 33.72104° -78.01604° 2 min 0.02 0.00
May 17, 22:29 33.72104° -78.01604° 8 min 0.02 0.02
347°
May 17, 22:21 33.72098° -78.01603° 2 min 0.02 0.02
May 17, 22:19 33.72097° -78.01603° 8 min 0.02 0.02
May 17, 22:11 33.72092° -78.01603° 2 min 0.02 0.03
270°
May 17, 22:09 33.72092° -78.01601° 8 min 0.02 0.01
90°
May 17, 22:01 33.72092° -78.01603° 2 min 0.02 0.05
315°
May 17, 21:59 33.72090° -78.01601° 8 min 0.02 0.01
225°
May 17, 21:51 33.72092° -78.01598° 2 min 0.02 0.00
May 17, 21:49 33.72092° -78.01598° 8 min 0.02 0.03
150°
May 17, 21:41 33.72098° -78.01603° 2 min 0.02 0.04
180°
May 17, 21:39 33.72100° -78.01603° 8 min 0.02 0.01
157°
May 17, 21:31 33.72104° -78.01604° 2 min 0.02 0.02
180°
May 17, 21:29 33.72105° -78.01604° 8 min 0.02 0.06
135°
May 17, 21:21 33.72113° -78.01615° 2 min 0.02 0.03
180°
May 17, 21:19 33.72115° -78.01615° 8 min 0.02 0.03
121°
May 17, 21:11 33.72119° -78.01622° 2 min 0.02 0.03
90°
May 17, 21:09 33.72119° -78.01624° 8 min 0.02 0.01
104°
May 17, 21:01 33.72120° -78.01628° 2 min 0.02 0.02
270°
May 17, 20:59 33.72120° -78.01627° 8 min 0.02 0.02
126°
May 17, 20:51 33.72122° -78.01630° 2 min 0.02 0.03
90°
May 17, 20:49 33.72122° -78.01633° 8 min 0.02 0.02
90°
May 17, 20:41 33.72122° -78.01639° 2 min 0.02 0.05
40°
May 17, 20:39 33.72120° -78.01641° 8 min 0.02 0.02
90°
May 17, 20:31 33.72120° -78.01646° 2 min 0.02 0.03
270°
May 17, 20:29 33.72120° -78.01643° 8 min 0.02 0.01
90°
May 17, 20:21 33.72120° -78.01646° 2 min 0.02 0.04
68°
May 17, 20:19 33.72119° -78.01648° 8 min 0.02 0.02
90°
May 17, 20:11 33.72119° -78.01654° 2 min 0.02 0.00
May 17, 20:09 33.72119° -78.01654° 8 min 0.02 0.02
29°
May 17, 20:01 33.72115° -78.01656° 2 min 0.02 0.03
90°
May 17, 19:59 33.72115° -78.01659° 7 min 0.02 0.01
45°
May 17, 19:51 33.72113° -78.01661° 2 min 0.02 0.03
48°
May 17, 19:49 33.72112° -78.01662° 8 min 0.02 0.02
59°
May 17, 19:41 33.72110° -78.01667° 2 min 0.02 0.04
180°
May 17, 19:39 33.72112° -78.01667° 8 min 0.02 0.01
320°
May 17, 19:31 33.72110° -78.01665° 2 min 0.02 0.04
180°
May 17, 19:29 33.72112° -78.01665° 8 min 0.02 0.01
40°
May 17, 19:21 33.72110° -78.01667° 2 min 0.02 0.00
May 17, 19:19 33.72110° -78.01667° 8 min 0.02 0.01
May 17, 19:11 33.72109° -78.01667° 2 min 0.02 0.00
May 17, 19:09 33.72109° -78.01667° 8 min 0.02 0.01
180°
May 17, 19:01 33.72110° -78.01667° 2 min 0.02 0.00
May 17, 18:59 33.72110° -78.01667° 8 min 0.02 0.01
180°
May 17, 18:51 33.72112° -78.01667° 2 min 0.02 0.04
May 17, 18:49 33.72110° -78.01667° 8 min 0.02 0.00
May 17, 18:41 33.72110° -78.01667° 2 min 0.02 0.03
90°
May 17, 18:39 33.72110° -78.01669° 8 min 0.02 0.00
May 17, 18:31 33.72110° -78.01669° 2 min 0.02 0.02
May 17, 18:29 33.72109° -78.01669° 8 min 0.02 0.01
May 17, 18:21 33.72107° -78.01669° 2 min 0.02 0.03
90°
May 17, 18:19 33.72107° -78.01672° 8 min 0.02 0.01
May 17, 18:11 33.72105° -78.01672° 2 min 0.02 0.00
May 17, 18:09 33.72105° -78.01672° 8 min 0.02 0.00
May 17, 18:01 33.72105° -78.01672° 2 min 0.02 0.02
May 17, 17:59 33.72104° -78.01672° 8 min 0.02 0.01
90°
May 17, 17:51 33.72104° -78.01673° 2 min 0.02 0.00
May 17, 17:49 33.72104° -78.01673° 8 min 0.02 0.01
45°
May 17, 17:41 33.72102° -78.01675° 2 min 0.02 0.03
180°
May 17, 17:39 33.72104° -78.01675° 8 min 0.02 0.00
May 17, 17:31 33.72104° -78.01675° 2 min 0.02 0.00
May 17, 17:29 33.72104° -78.01675° 8 min 0.02 0.01
May 17, 17:21 33.72102° -78.01675° 2 min 0.02 0.03
180°
May 17, 17:19 33.72104° -78.01675° 8 min 0.02 0.02
32°
May 17, 17:11 33.72100° -78.01678° 2 min 0.02 0.03
270°
May 17, 17:09 33.72100° -78.01675° 8 min 0.02 0.02
29°
May 17, 17:01 33.72097° -78.01678° 2 min 0.02 0.00
May 17, 16:59 33.72097° -78.01678° 8 min 0.02 0.01
May 17, 16:51 33.72095° -78.01678° 1 min 0.02 0.00
May 17, 16:49 33.72095° -78.01678° 8 min 0.02 0.00
May 17, 16:41 33.72095° -78.01678° 2 min 0.02 0.02
May 17, 16:39 33.72094° -78.01678° 8 min 0.02 0.01
May 17, 16:31 33.72092° -78.01678° 2 min 0.02 0.00
May 17, 16:29 33.72092° -78.01678° 8 min 0.02 0.01
May 17, 16:21 33.72090° -78.01678° 2 min 0.02 0.02
May 17, 16:19 33.72089° -78.01678° 8 min 0.02 0.01
May 17, 16:11 33.72086° -78.01678° 2 min 0.02 0.04
301°
May 17, 16:09 33.72085° -78.01675° 8 min 0.02 0.01
May 17, 16:01 33.72083° -78.01675° 2 min 0.02 0.00
May 17, 15:59 33.72083° -78.01675° 8 min 0.02 0.01
May 17, 15:51 33.72082° -78.01675° 2 min 0.02 0.00
May 17, 15:49 33.72082° -78.01675° 8 min 0.02 0.01
May 17, 15:41 33.72080° -78.01675° 2 min 0.02 0.01
May 17, 15:39 33.72079° -78.01675° 8 min 0.02 0.01
May 17, 15:31 33.72077° -78.01675° 2 min 0.02 0.03
270°
May 17, 15:29 33.72077° -78.01673° 8 min 0.02 0.01
337°
May 17, 15:21 33.72074° -78.01672° 2 min 0.02 0.03
180°
May 17, 15:19 33.72076° -78.01672° 8 min 0.02 0.03
340°
May 17, 15:11 33.72070° -78.01669° 2 min 0.02 0.00
May 17, 15:09 33.72070° -78.01669° 8 min 0.02 0.02
328°
May 17, 15:01 33.72067° -78.01667° 2 min 0.02 0.00
May 17, 14:59 33.72067° -78.01667° 8 min 0.02 0.02
312°
May 17, 14:51 33.72064° -78.01662° 2 min 0.02 0.00
May 17, 14:49 33.72064° -78.01662° 8 min 0.02 0.01
326°
May 17, 14:41 33.72062° -78.01661° 2 min 0.02 0.00
May 17, 14:39 33.72062° -78.01661° 8 min 0.02 0.00
May 17, 14:31 33.72062° -78.01661° 2 min 0.02 0.00
May 17, 14:29 33.72062° -78.01661° 8 min 0.02 0.01
301°
May 17, 14:21 33.72061° -78.01659° 2 min 0.02 0.05
320°
May 17, 14:19 33.72058° -78.01656° 8 min 0.02 0.00
May 17, 14:11 33.72058° -78.01656° 2 min 0.02 0.00
May 17, 14:09 33.72058° -78.01656° 8 min 0.02 0.02
309°
May 17, 14:01 33.72055° -78.01652° 2 min 0.02 0.00
May 17, 13:59 33.72055° -78.01652° 8 min 0.02 0.01
270°
May 17, 13:51 33.72055° -78.01650° 1 min 0.02 0.00
May 17, 13:49 33.72055° -78.01650° 8 min 0.02 0.02
301°
May 17, 13:41 33.72053° -78.01646° 2 min 0.02 0.00
May 17, 13:39 33.72053° -78.01646° 8 min 0.02 0.00
May 17, 13:31 33.72053° -78.01646° 2 min 0.02 0.00
May 17, 13:29 33.72053° -78.01646° 8 min 0.02 0.01
270°
May 17, 13:21 33.72053° -78.01643° 2 min 0.02 0.00
May 17, 13:19 33.72053° -78.01643° 8 min 0.02 0.00
May 17, 13:11 33.72053° -78.01643° 2 min 0.02 0.03
270°
May 17, 13:09 33.72053° -78.01641° 8 min 0.02 0.01
May 17, 13:01 33.72052° -78.01641° 2 min 0.02 0.00
May 17, 12:59 33.72052° -78.01641° 8 min 0.02 0.00
May 17, 12:51 33.72052° -78.01641° 2 min 0.02 0.00
May 17, 12:49 33.72052° -78.01641° 8 min 0.02 0.00
May 17, 12:41 33.72052° -78.01641° 2 min 0.02 0.02
180°
May 17, 12:39 33.72053° -78.01641° 8 min 0.02 0.00
May 17, 12:31 33.72053° -78.01641° 2 min 0.02 0.00
May 17, 12:29 33.72053° -78.01641° 8 min 0.02 0.00
May 17, 12:21 33.72053° -78.01641° 2 min 0.02 0.04
301°
May 17, 12:19 33.72052° -78.01639° 8 min 0.02 0.02
270°
May 17, 12:11 33.72052° -78.01633° 2 min 0.02 0.00
May 17, 12:09 33.72052° -78.01633° 8 min 0.02 0.01
270°
May 17, 12:01 33.72052° -78.01630° 2 min 0.02 0.03
270°
May 17, 11:59 33.72052° -78.01628° 8 min 0.02 0.07
253°
May 17, 11:51 33.72056° -78.01611° 2 min 0.03 0.04
180°
May 17, 11:49 33.72058° -78.01611° 8 min 0.02 0.01
220°
May 17, 11:41 33.72061° -78.01609° 2 min 0.02 0.04
May 17, 11:39 33.72058° -78.01609° 8 min 0.02 0.00
May 17, 11:31 33.72058° -78.01609° 2 min 0.02 0.04
180°
May 17, 11:29 33.72061° -78.01609° 8 min 0.02 0.01
270°
May 17, 11:21 33.72061° -78.01607° 2 min 0.02 0.00
May 17, 11:19 33.72061° -78.01607° 8 min 0.02 0.00
May 17, 11:11 33.72061° -78.01607° 2 min 0.02 0.02
180°
May 17, 11:09 33.72062° -78.01607° 8 min 0.02 0.01
270°
May 17, 11:01 33.72062° -78.01604° 2 min 0.02 0.00
May 17, 10:59 33.72062° -78.01604° 8 min 0.02 0.00
May 17, 10:51 33.72062° -78.01604° 2 min 0.02 0.00
May 17, 10:49 33.72062° -78.01604° 8 min 0.02 0.01
214°
May 17, 10:41 33.72064° -78.01603° 2 min 0.02 0.00
May 17, 10:39 33.72064° -78.01603° 8 min 0.02 0.00
May 17, 10:31 33.72064° -78.01603° 1 min 0.02 0.02
180°
May 17, 10:29 33.72065° -78.01603° 8 min 0.02 0.01
May 17, 10:21 33.72064° -78.01603° 2 min 0.02 0.00
May 17, 10:19 33.72064° -78.01603° 8 min 0.02 0.00
May 17, 10:11 33.72064° -78.01603° 1 min 0.02 0.02
180°
May 17, 10:09 33.72065° -78.01603° 8 min 0.02 0.00
May 17, 10:01 33.72065° -78.01603° 2 min 0.02 0.00
May 17, 09:59 33.72065° -78.01603° 8 min 0.02 0.00
May 17, 09:51 33.72065° -78.01603° 2 min 0.02 0.03
270°
May 17, 09:49 33.72065° -78.01601° 8 min 0.02 0.01
220°
May 17, 09:41 33.72067° -78.01598° 2 min 0.03 0.00
May 17, 09:39 33.72067° -78.01598° 8 min 0.03 0.00
180°
May 17, 09:31 33.72068° -78.01598° 2 min 0.02 0.01
May 17, 09:29 33.72067° -78.01598° 8 min 0.03 0.01
248°
May 17, 09:21 33.72068° -78.01596° 2 min 0.03 0.00
May 17, 09:19 33.72068° -78.01596° 8 min 0.03 0.00
May 17, 09:11 33.72068° -78.01596° 2 min 0.03 0.04
180°
May 17, 09:09 33.72070° -78.01596° 8 min 0.03 0.01
239°
May 17, 09:01 33.72071° -78.01594° 2 min 0.03 0.00
May 17, 08:59 33.72071° -78.01594° 8 min 0.03 0.02
180°
May 17, 08:51 33.72076° -78.01594° 2 min 0.02 0.00
May 17, 08:49 33.72076° -78.01594° 8 min 0.02 0.01
270°
May 17, 08:41 33.72076° -78.01592° 2 min 0.03 0.02
180°
May 17, 08:39 33.72077° -78.01592° 8 min 0.03 0.01
180°
May 17, 08:31 33.72079° -78.01592° 2 min 0.02 0.00
May 17, 08:29 33.72079° -78.01592° 8 min 0.02 0.02
259°
May 17, 08:21 33.72080° -78.01588° 2 min 0.03 0.03
90°
May 17, 08:19 33.72080° -78.01590° 8 min 0.03 0.01
180°
May 17, 08:11 33.72082° -78.01590° 2 min 0.03 0.00
May 17, 08:09 33.72082° -78.01590° 8 min 0.03 0.01
270°
May 17, 08:01 33.72082° -78.01588° 2 min 0.03 0.04
121°
May 17, 07:59 33.72083° -78.01590° 8 min 0.03 0.01
270°
May 17, 07:51 33.72083° -78.01588° 2 min 0.03 0.00
May 17, 07:49 33.72083° -78.01588° 8 min 0.03 0.00
May 17, 07:41 33.72083° -78.01588° 2 min 0.03 0.05
135°
May 17, 07:39 33.72085° -78.01590° 8 min 0.03 0.01
270°
May 17, 07:31 33.72085° -78.01588° 2 min 0.03 0.00
May 17, 07:29 33.72085° -78.01588° 8 min 0.03 0.02
180°
May 17, 07:21 33.72089° -78.01588° 2 min 0.03 0.00
May 17, 07:19 33.72089° -78.01588° 8 min 0.03 0.01
180°
May 17, 07:11 33.72092° -78.01588° 2 min 0.03 0.03
90°
May 17, 07:09 33.72092° -78.01590° 8 min 0.03 0.00
May 17, 07:01 33.72092° -78.01590° 2 min 0.03 0.00
May 17, 06:59 33.72092° -78.01590° 8 min 0.03 0.03
160°
May 17, 06:51 33.72097° -78.01592° 1 min 0.02 0.03
270°
May 17, 06:49 33.72097° -78.01590° 8 min 0.03 0.01
180°
May 17, 06:41 33.72098° -78.01590° 2 min 0.03 0.03
90°
May 17, 06:39 33.72098° -78.01592° 8 min 0.02 0.01
180°
May 17, 06:31 33.72100° -78.01592° 2 min 0.02 0.02
180°
May 17, 06:29 33.72102° -78.01592° 8 min 0.02 0.01
157°
May 17, 06:21 33.72105° -78.01594° 2 min 0.02 0.00
May 17, 06:19 33.72105° -78.01594° 8 min 0.02 0.02
156°
May 17, 06:11 33.72109° -78.01596° 2 min 0.02 0.00
May 17, 06:09 33.72109° -78.01596° 8 min 0.02 0.01
121°
May 17, 06:01 33.72110° -78.01598° 2 min 0.02 0.00
May 17, 05:59 33.72110° -78.01598° 8 min 0.02 0.00
May 17, 05:51 33.72110° -78.01598° 2 min 0.02 0.00
May 17, 05:49 33.72110° -78.01598° 8 min 0.02 0.01
140°
May 17, 05:41 33.72112° -78.01601° 2 min 0.02 0.02
180°
May 17, 05:39 33.72113° -78.01601° 8 min 0.02 0.01
135°
May 17, 05:31 33.72115° -78.01603° 2 min 0.02 0.00
May 17, 05:29 33.72115° -78.01603° 8 min 0.02 0.02
110°
May 17, 05:21 33.72116° -78.01607° 2 min 0.02 0.03
270°
May 17, 05:19 33.72116° -78.01604° 8 min 0.02 0.02
90°
May 17, 05:11 33.72116° -78.01609° 2 min 0.02 0.03
270°
May 17, 05:09 33.72116° -78.01607° 8 min 0.02 0.01
90°
May 17, 05:01 33.72116° -78.01609° 2 min 0.02 0.05
140°
May 17, 04:59 33.72119° -78.01611° 8 min 0.02 0.00
May 17, 04:51 33.72119° -78.01611° 2 min 0.02 0.00
May 17, 04:49 33.72119° -78.01611° 8 min 0.02 0.01
90°
May 17, 04:41 33.72119° -78.01614° 2 min 0.02 0.00
May 17, 04:39 33.72119° -78.01614° 8 min 0.02 0.00
May 17, 04:31 33.72119° -78.01614° 2 min 0.02 0.03
270°
May 17, 04:29 33.72119° -78.01611° 8 min 0.02 0.01
90°
May 17, 04:21 33.72119° -78.01614° 2 min 0.02 0.00
May 17, 04:19 33.72119° -78.01614° 8 min 0.02 0.00
May 17, 04:11 33.72119° -78.01614° 2 min 0.02 0.00
May 17, 04:09 33.72119° -78.01614° 8 min 0.02 0.00
May 17, 04:01 33.72119° -78.01614° 2 min 0.02 0.00
May 17, 03:59 33.72119° -78.01614° 8 min 0.02 0.00
May 17, 03:51 33.72119° -78.01614° 2 min 0.02 0.03
270°
May 17, 03:49 33.72119° -78.01611° 8 min 0.02 0.01
104°
May 17, 03:41 33.72120° -78.01615° 2 min 0.02 0.00
May 17, 03:39 33.72120° -78.01615° 8 min 0.02 0.01
68°
May 17, 03:31 33.72119° -78.01617° 1 min 0.02 0.00
May 17, 03:29 33.72119° -78.01617° 8 min 0.02 0.01
112°
May 17, 03:21 33.72120° -78.01620° 2 min 0.02 0.03
90°
May 17, 03:19 33.72120° -78.01622° 8 min 0.02 0.02
270°
May 17, 03:11 33.72120° -78.01617° 2 min 0.02 0.03
90°
May 17, 03:09 33.72120° -78.01620° 8 min 0.02 0.01
292°
May 17, 03:01 33.72119° -78.01617° 2 min 0.02 0.05
320°
May 17, 02:59 33.72116° -78.01615° 8 min 0.02 0.01
180°
May 17, 02:51 33.72119° -78.01615° 2 min 0.02 0.04
May 17, 02:49 33.72116° -78.01615° 8 min 0.02 0.02
290°
May 17, 02:41 33.72115° -78.01611° 2 min 0.02 0.00
May 17, 02:39 33.72115° -78.01611° 8 min 0.02 0.02
309°
May 17, 02:31 33.72112° -78.01607° 2 min 0.02 0.04
May 17, 02:29 33.72110° -78.01607° 8 min 0.02 0.05
332°
May 17, 02:21 33.72100° -78.01601° 2 min 0.02 0.07
331°
May 17, 02:19 33.72097° -78.01598° 8 min 0.02 0.03
345°
May 17, 02:11 33.72090° -78.01596° 2 min 0.02 0.02
May 17, 02:09 33.72089° -78.01596° 8 min 0.02 0.02
May 17, 02:01 33.72085° -78.01596° 2 min 0.02 0.03
May 17, 01:59 33.72083° -78.01596° 8 min 0.02 0.00
May 17, 01:51 33.72083° -78.01596° 2 min 0.02 0.04
59°
May 17, 01:49 33.72082° -78.01598° 8 min 0.02 0.01
May 17, 01:41 33.72080° -78.01598° 2 min 0.02 0.01
May 17, 01:39 33.72079° -78.01598° 8 min 0.02 0.01
May 17, 01:31 33.72077° -78.01598° 2 min 0.02 0.04
180°
May 17, 01:29 33.72079° -78.01598° 8 min 0.02 0.03
20°
May 17, 01:21 33.72074° -78.01601° 2 min 0.02 0.00
May 17, 01:19 33.72074° -78.01601° 8 min 0.02 0.01
320°
May 17, 01:11 33.72071° -78.01598° 2 min 0.02 0.00
May 17, 01:09 33.72071° -78.01598° 8 min 0.02 0.00
May 17, 01:01 33.72071° -78.01598° 2 min 0.02 0.02
May 17, 00:59 33.72070° -78.01598° 8 min 0.02 0.01
121°
May 17, 00:51 33.72071° -78.01601° 2 min 0.02 0.00
May 17, 00:49 33.72071° -78.01601° 8 min 0.02 0.01
May 17, 00:41 33.72070° -78.01601° 2 min 0.02 0.00
May 17, 00:39 33.72070° -78.01601° 8 min 0.02 0.01
270°
May 17, 00:31 33.72070° -78.01598° 2 min 0.02 0.03
90°
May 17, 00:29 33.72070° -78.01601° 8 min 0.02 0.01
270°
May 17, 00:21 33.72070° -78.01598° 2 min 0.02 0.00
May 17, 00:19 33.72070° -78.01598° 8 min 0.02 0.00
May 17, 00:11 33.72070° -78.01598° 2 min 0.02 0.00
May 17, 00:09 33.72070° -78.01598° 8 min 0.02 0.01
239°
May 17, 00:01 33.72071° -78.01596° 1 min 0.02 0.00
May 16, 23:59 33.72071° -78.01596° 8 min 0.02 0.00
May 16, 23:51 33.72071° -78.01596° 2 min 0.02 0.04
180°
May 16, 23:49 33.72074° -78.01596° 8 min 0.02 0.02
May 16, 23:41 33.72070° -78.01596° 2 min 0.03 0.04
May 16, 23:39 33.72068° -78.01596° 8 min 0.03 0.01
180°
May 16, 23:31 33.72070° -78.01596° 2 min 0.03 0.03
90°
May 16, 23:29 33.72070° -78.01598° 8 min 0.02 0.01
270°
May 16, 23:21 33.72070° -78.01596° 2 min 0.03 0.00
May 16, 23:19 33.72070° -78.01596° 8 min 0.03 0.00
May 16, 23:11 33.72070° -78.01596° 2 min 0.03 0.00
May 16, 23:09 33.72070° -78.01596° 8 min 0.03 0.01
180°
May 16, 23:01 33.72071° -78.01596° 2 min 0.02 0.05
220°
May 16, 22:59 33.72074° -78.01594° 8 min 0.03 0.01
180°
May 16, 22:51 33.72076° -78.01594° 2 min 0.02 0.03
228°
May 16, 22:49 33.72077° -78.01592° 8 min 0.03 0.01
180°
May 16, 22:41 33.72080° -78.01592° 2 min 0.02 0.04
180°
May 16, 22:39 33.72082° -78.01592° 8 min 0.02 0.00
May 16, 22:31 33.72082° -78.01592° 2 min 0.02 0.00
May 16, 22:29 33.72082° -78.01592° 8 min 0.02 0.01
180°
May 16, 22:21 33.72083° -78.01592° 2 min 0.02 0.00
May 16, 22:19 33.72083° -78.01592° 8 min 0.02 0.01
180°
May 16, 22:11 33.72085° -78.01592° 2 min 0.02 0.03
270°
May 16, 22:09 33.72085° -78.01590° 8 min 0.03 0.02
151°
May 16, 22:01 33.72089° -78.01592° 2 min 0.02 0.02
90°
May 16, 21:59 33.72089° -78.01594° 8 min 0.02 0.02
226°
May 16, 21:51 33.72092° -78.01590° 2 min 0.03 0.05
45°
May 16, 21:49 33.72090° -78.01592° 8 min 0.02 0.00
May 16, 21:41 33.72090° -78.01592° 2 min 0.02 0.03
180°
May 16, 21:39 33.72092° -78.01592° 8 min 0.02 0.01
180°
May 16, 21:31 33.72094° -78.01592° 2 min 0.02 0.04
May 16, 21:29 33.72092° -78.01592° 8 min 0.02 0.01
90°
May 16, 21:21 33.72092° -78.01594° 2 min 0.02 0.05
209°
May 16, 21:19 33.72094° -78.01592° 8 min 0.02 0.01
90°
May 16, 21:11 33.72094° -78.01594° 2 min 0.02 0.00
May 16, 21:09 33.72094° -78.01594° 8 min 0.02 0.02
148°
May 16, 21:01 33.72097° -78.01596° 2 min 0.02 0.00
May 16, 20:59 33.72097° -78.01596° 8 min 0.02 0.01
180°
May 16, 20:51 33.72098° -78.01596° 2 min 0.02 0.00
May 16, 20:49 33.72098° -78.01596° 8 min 0.02 0.02
180°
May 16, 20:41 33.72102° -78.01596° 1 min 0.02 0.00
May 16, 20:39 33.72102° -78.01596° 8 min 0.02 0.01
135°
May 16, 20:31 33.72104° -78.01598° 2 min 0.02 0.02
180°
May 16, 20:29 33.72105° -78.01598° 8 min 0.02 0.01
May 16, 20:21 33.72104° -78.01598° 2 min 0.02 0.00
May 16, 20:19 33.72104° -78.01598° 8 min 0.02 0.01
121°
May 16, 20:11 33.72105° -78.01601° 2 min 0.02 0.00
May 16, 20:09 33.72105° -78.01601° 8 min 0.02 0.02
156°
May 16, 20:01 33.72109° -78.01603° 2 min 0.02 0.02
180°
May 16, 19:59 33.72110° -78.01603° 8 min 0.02 0.02
137°
May 16, 19:51 33.72113° -78.01607° 2 min 0.02 0.00
May 16, 19:49 33.72113° -78.01607° 8 min 0.02 0.01
90°
May 16, 19:41 33.72113° -78.01609° 2 min 0.02 0.03
180°
May 16, 19:39 33.72115° -78.01609° 8 min 0.02 0.02
107°
May 16, 19:31 33.72116° -78.01614° 2 min 0.02 0.00
May 16, 19:29 33.72116° -78.01614° 8 min 0.02 0.02
134°
May 16, 19:21 33.72120° -78.01617° 2 min 0.02 0.00
May 16, 19:19 33.72120° -78.01617° 8 min 0.02 0.01
90°
May 16, 19:11 33.72120° -78.01620° 2 min 0.02 0.03
90°
May 16, 19:09 33.72120° -78.01622° 8 min 0.02 0.01
180°
May 16, 19:01 33.72122° -78.01622° 2 min 0.02 0.03
90°
May 16, 18:59 33.72122° -78.01624° 8 min 0.02 0.01
90°
May 16, 18:51 33.72122° -78.01627° 2 min 0.02 0.04
180°
May 16, 18:49 33.72124° -78.01627° 8 min 0.02 0.01
90°
May 16, 18:41 33.72124° -78.01628° 2 min 0.02 0.00
May 16, 18:39 33.72124° -78.01628° 8 min 0.02 0.02
90°
May 16, 18:31 33.72124° -78.01633° 2 min 0.02 0.00
May 16, 18:29 33.72124° -78.01633° 8 min 0.02 0.00
May 16, 18:21 33.72124° -78.01633° 2 min 0.02 0.00
May 16, 18:19 33.72124° -78.01633° 8 min 0.02 0.02
90°
May 16, 18:11 33.72124° -78.01637° 2 min 0.02 0.00
May 16, 18:09 33.72124° -78.01637° 8 min 0.02 0.01
90°
May 16, 18:01 33.72124° -78.01641° 2 min 0.02 0.00
May 16, 17:59 33.72124° -78.01641° 8 min 0.02 0.01
90°
May 16, 17:51 33.72124° -78.01643° 2 min 0.02 0.05
40°
May 16, 17:49 33.72122° -78.01646° 8 min 0.02 0.01
90°
May 16, 17:41 33.72122° -78.01648° 1 min 0.02 0.00
May 16, 17:39 33.72122° -78.01648° 8 min 0.02 0.01
90°
May 16, 17:31 33.72122° -78.01650° 2 min 0.02 0.04
May 16, 17:29 33.72120° -78.01650° 8 min 0.02 0.01
90°
May 16, 17:21 33.72120° -78.01652° 2 min 0.02 0.00
May 16, 17:19 33.72120° -78.01652° 8 min 0.02 0.01
90°
May 16, 17:11 33.72120° -78.01654° 2 min 0.02 0.00
May 16, 17:09 33.72120° -78.01654° 8 min 0.02 0.01
90°
May 16, 17:01 33.72120° -78.01656° 2 min 0.02 0.00
May 16, 16:59 33.72120° -78.01656° 8 min 0.02 0.00
May 16, 16:51 33.72120° -78.01656° 2 min 0.02 0.00
May 16, 16:49 33.72120° -78.01656° 8 min 0.02 0.01
68°
May 16, 16:41 33.72119° -78.01659° 2 min 0.02 0.05
40°
May 16, 16:39 33.72116° -78.01661° 8 min 0.02 0.01
23°
May 16, 16:31 33.72113° -78.01662° 2 min 0.02 0.07
90°
May 16, 16:29 33.72113° -78.01667° 8 min 0.02 0.01
59°
May 16, 16:21 33.72112° -78.01669° 2 min 0.02 0.04
May 16, 16:19 33.72110° -78.01669° 8 min 0.02 0.02
32°
May 16, 16:11 33.72107° -78.01672° 2 min 0.02 0.05
29°
May 16, 16:09 33.72105° -78.01673° 8 min 0.02 0.02
32°
May 16, 16:01 33.72102° -78.01675° 2 min 0.02 0.00
May 16, 15:59 33.72102° -78.01675° 8 min 0.02 0.02
29°
May 16, 15:51 33.72098° -78.01678° 2 min 0.02 0.00
May 16, 15:49 33.72098° -78.01678° 8 min 0.02 0.01
May 16, 15:41 33.72097° -78.01678° 2 min 0.02 0.03
May 16, 15:39 33.72095° -78.01678° 8 min 0.02 0.00
May 16, 15:31 33.72095° -78.01678° 2 min 0.02 0.02
May 16, 15:29 33.72094° -78.01678° 8 min 0.02 0.01
May 16, 15:21 33.72092° -78.01678° 2 min 0.02 0.00
May 16, 15:19 33.72092° -78.01678° 8 min 0.02 0.02
May 16, 15:11 33.72086° -78.01678° 2 min 0.02 0.00
May 16, 15:09 33.72086° -78.01678° 8 min 0.02 0.00
May 16, 15:01 33.72086° -78.01678° 2 min 0.02 0.00
May 16, 14:59 33.72086° -78.01678° 8 min 0.02 0.01
May 16, 14:51 33.72083° -78.01678° 1 min 0.02 0.00
May 16, 14:49 33.72083° -78.01678° 8 min 0.02 0.01
May 16, 14:41 33.72082° -78.01678° 2 min 0.02 0.02
180°
May 16, 14:39 33.72083° -78.01678° 8 min 0.02 0.02
May 16, 14:31 33.72080° -78.01678° 2 min 0.02 0.00
May 16, 14:29 33.72080° -78.01678° 8 min 0.02 0.02
328°
May 16, 14:21 33.72077° -78.01675° 2 min 0.02 0.05
140°
May 16, 14:19 33.72079° -78.01678° 8 min 0.02 0.01
320°
May 16, 14:11 33.72077° -78.01675° 2 min 0.02 0.02
May 16, 14:09 33.72076° -78.01675° 8 min 0.02 0.00
May 16, 14:01 33.72076° -78.01675° 2 min 0.02 0.02
180°
May 16, 13:59 33.72077° -78.01675° 8 min 0.02 0.02
212°
May 16, 13:51 33.72080° -78.01673° 2 min 0.02 0.01
May 16, 13:49 33.72079° -78.01673° 8 min 0.02 0.00
May 16, 13:41 33.72079° -78.01673° 2 min 0.02 0.04
May 16, 13:39 33.72077° -78.01673° 8 min 0.02 0.03
349°
May 16, 13:31 33.72070° -78.01672° 2 min 0.02 0.00
May 16, 13:29 33.72070° -78.01672° 8 min 0.02 0.00
May 16, 13:21 33.72070° -78.01672° 2 min 0.02 0.03
270°
May 16, 13:19 33.72070° -78.01669° 8 min 0.02 0.01
May 16, 13:11 33.72068° -78.01669° 2 min 0.02 0.04
292°
May 16, 13:09 33.72067° -78.01667° 8 min 0.02 0.02
312°
May 16, 13:01 33.72064° -78.01662° 2 min 0.02 0.02
270°
May 16, 12:59 33.72064° -78.01661° 8 min 0.02 0.01
315°
May 16, 12:51 33.72062° -78.01659° 2 min 0.02 0.00
May 16, 12:49 33.72062° -78.01659° 8 min 0.02 0.02
312°
May 16, 12:41 33.72058° -78.01654° 2 min 0.02 0.05
320°
May 16, 12:39 33.72056° -78.01652° 8 min 0.02 0.01
284°
May 16, 12:31 33.72055° -78.01648° 2 min 0.02 0.07
270°
May 16, 12:29 33.72055° -78.01643° 8 min 0.02 0.03
294°
May 16, 12:21 33.72053° -78.01637° 2 min 0.02 0.05
151°
May 16, 12:19 33.72055° -78.01639° 8 min 0.02 0.03
294°
May 16, 12:11 33.72053° -78.01633° 2 min 0.02 0.00
May 16, 12:09 33.72053° -78.01633° 8 min 0.02 0.00
May 16, 12:01 33.72053° -78.01633° 2 min 0.02 0.00
May 16, 11:59 33.72053° -78.01633° 8 min 0.02 0.02
270°
May 16, 11:51 33.72053° -78.01628° 2 min 0.02 0.00
May 16, 11:49 33.72053° -78.01628° 8 min 0.02 0.01
270°
May 16, 11:41 33.72053° -78.01627° 2 min 0.02 0.00
May 16, 11:39 33.72053° -78.01627° 8 min 0.02 0.01
270°
May 16, 11:31 33.72053° -78.01624° 2 min 0.02 0.04
301°
May 16, 11:29 33.72052° -78.01622° 7 min 0.02 0.01
180°
May 16, 11:21 33.72053° -78.01622° 2 min 0.02 0.03
270°
May 16, 11:19 33.72053° -78.01620° 8 min 0.02 0.01
180°
May 16, 11:11 33.72055° -78.01620° 2 min 0.02 0.05
320°
May 16, 11:09 33.72053° -78.01617° 8 min 0.02 0.01
180°
May 16, 11:01 33.72055° -78.01617° 2 min 0.02 0.00
May 16, 10:59 33.72055° -78.01617° 8 min 0.02 0.01
270°
May 16, 10:51 33.72055° -78.01615° 2 min 0.02 0.02
270°
May 16, 10:49 33.72055° -78.01614° 8 min 0.02 0.01
121°
May 16, 10:41 33.72056° -78.01615° 2 min 0.02 0.03
301°
May 16, 10:39 33.72055° -78.01614° 8 min 0.02 0.00
180°
May 16, 10:31 33.72056° -78.01614° 2 min 0.02 0.04
292°
May 16, 10:29 33.72055° -78.01611° 8 min 0.03 0.01
112°
May 16, 10:21 33.72056° -78.01614° 2 min 0.02 0.03
270°
May 16, 10:19 33.72056° -78.01611° 8 min 0.03 0.00
May 16, 10:11 33.72056° -78.01611° 2 min 0.03 0.00
May 16, 10:09 33.72056° -78.01611° 8 min 0.03 0.00
May 16, 10:01 33.72056° -78.01611° 2 min 0.03 0.03
270°
May 16, 09:59 33.72056° -78.01609° 8 min 0.03 0.01
270°
May 16, 09:51 33.72056°